Bayanhongor, Mongolia
Current Conditions -  °F | °C
As of 3:00 PM on Sunday 26 Oct 2014 (Local Time) from ZMUB Reporting Station
Scattered Clouds Scattered Clouds  
Wind Chill: 32°   Ceiling: Unl
Heat Index: 41°   Visibility: 6mi
Dew Point: -2°   Wind: 18mph
Humidity: 16%   Direction: 140°SE
Pressure: 30.33"   Gusts: NA
Location:  46.13°N, 100.68°E
Report Text: ZMUB 260700Z 14008MPS 9999 SCT100 05/M19 Q1027 NOSIG RMK QFE661.6 16 MOP
Loading
Personal Weather Stations






























Interactive Weather Map
Tropical Storm Tracking
New forecast layout! Learn more

10-Day Weather Forecast

Advertisements
Track Severe Weather on mobile